Terminal Aerodrome Forecast
Issued by NWS Portland, OR

Home | Current Version | Previous Version | Text Only | Print | Product List | Glossary On
Versions: 1 2 3 4 5 6 7 8 9 10 11 12 13 14 15 16 17 18 19 20 21 22 23 24 25 26 27 28 29 30 31 32 33 34 35 36 37 38 39 40 41 42 43 44 45 46 47 48 49 50
000
FTUS46 KPQR 032320
TAFHIO
TAF
KHIO 032320Z 0400/0424 22005KT P6SM VCSH SCT015 SCT025 BKN040
      TEMPO 0400/0401 BKN025
     FM040400 18006KT 5SM -RA SCT015 OVC025
     FM040600 18008KT 4SM -RA BR OVC015
     FM040900 18004KT 2SM -RA BR OVC007
     FM041400 28007KT 3SM -SHRA BR BKN007 BKN025
     FM042000 32006KT P6SM SCT025 BKN035=

USA.gov is the U.S. government's official web portal to all federal, state and local government web resources and services.